Time;durP1;ratioP1;P1;durP2;ratioP2;P2;SDS_P1;SDS_P2;PMS_P1;PMS_P2;Temp;Humidity;BMP_temperature;BMP_pressure;BME280_temperature;BME280_humidity;BME280_pressure;Samples;Min_cycle;Max_cycle;Signal;HPM_P1;HPM_P2
2021/05/01 00:02:14;;;;;;;30.40;25.50;;;;;;;7.70;60.36;99759.06;5014579;28;20053;-59
2021/05/01 00:04:48;;;;;;;30.75;24.88;;;;;;;7.69;60.31;99755.59;5014833;28;20038;-59
2021/05/01 00:07:16;;;;;;;30.17;25.38;;;;;;;7.68;60.32;99756.44;4997823;28;20423;-58
2021/05/01 00:09:47;;;;;;;34.15;24.35;;;;;;;7.68;60.26;99753.00;4998203;28;20038;-57
2021/05/01 00:12:20;;;;;;;30.75;25.45;;;;;;;7.67;60.11;99753.81;4996970;28;20041;-56
2021/05/01 00:14:54;;;;;;;31.50;25.63;;;;;;;7.66;60.45;99754.66;5014195;28;20389;-59
2021/05/01 00:17:30;;;;;;;31.03;25.20;;;;;;;7.65;60.39;99747.75;5014689;28;20121;-58
2021/05/01 00:20:01;;;;;;;32.67;24.10;;;;;;;7.65;60.60;99755.50;5015115;28;20285;-58
2021/05/01 00:22:32;;;;;;;32.92;25.42;;;;;;;7.64;60.37;99751.16;4997034;28;20034;-58
2021/05/01 00:25:06;;;;;;;34.17;25.48;;;;;;;7.62;60.63;99748.56;5013580;28;20058;-58
2021/05/01 00:27:42;;;;;;;29.42;24.73;;;;;;;7.62;60.63;99757.16;5014360;28;20129;-59
2021/05/01 00:30:11;;;;;;;34.60;26.23;;;;;;;7.60;60.42;99748.50;5014197;28;20095;-57
2021/05/01 00:32:44;;;;;;;30.05;24.05;;;;;;;7.61;60.63;99750.25;5014661;28;20046;-58
2021/05/01 00:35:15;;;;;;;30.95;25.73;;;;;;;7.60;60.48;99745.94;5014850;28;20062;-59
2021/05/01 00:37:46;;;;;;;33.70;25.02;;;;;;;7.60;60.79;99751.09;5013321;28;20069;-59
2021/05/01 00:40:17;;;;;;;32.03;26.42;;;;;;;7.60;60.52;99750.25;5013218;28;20496;-58
2021/05/01 00:42:48;;;;;;;32.80;24.75;;;;;;;7.58;60.50;99744.16;5013315;28;20046;-59
2021/05/01 00:45:20;;;;;;;31.45;25.27;;;;;;;7.58;60.52;99751.91;5013410;28;20033;-59
2021/05/01 00:47:57;;;;;;;;;;;;;;;7.54;60.25;99756.13;5014633;28;20041;-58
2021/05/01 00:50:28;;;;;;;32.30;27.15;;;;;;;7.53;60.58;99751.81;5013413;28;19970;-58
2021/05/01 00:53:00;;;;;;;30.67;24.70;;;;;;;7.51;60.76;99745.72;5013874;28;20034;-58
2021/05/01 00:55:37;;;;;;;31.80;24.40;;;;;;;7.50;60.20;99754.31;5014388;28;20038;-58
2021/05/01 00:58:09;;;;;;;32.13;26.27;;;;;;;7.50;60.57;99750.84;5013197;28;20037;-58
2021/05/01 01:03:18;;;;;;;34.63;27.38;;;;;;;7.47;61.05;99739.59;5014028;28;20046;-57
2021/05/01 01:05:51;;;;;;;33.05;26.65;;;;;;;7.48;60.67;99727.59;5014131;28;20045;-57
2021/05/01 01:08:19;;;;;;;40.80;27.25;;;;;;;7.47;61.02;99728.44;5013071;28;20029;-57
2021/05/01 01:10:53;;;;;;;34.88;26.02;;;;;;;7.46;60.60;99730.16;5013644;28;20477;-57
2021/05/01 01:13:25;;;;;;;41.38;27.38;;;;;;;7.44;60.59;99724.09;5012643;28;20034;-59
2021/05/01 01:15:56;;;;;;;34.22;25.55;;;;;;;7.45;60.78;99727.53;4996163;28;20405;-58
2021/05/01 01:18:31;;;;;;;35.42;28.20;;;;;;;7.42;60.64;99725.75;4996944;28;20038;-59
2021/05/01 01:21:03;;;;;;;36.42;28.70;;;;;;;7.43;60.49;99724.91;5013928;28;20469;-59
2021/05/01 01:23:34;;;;;;;33.72;27.05;;;;;;;7.42;60.67;99732.59;5012604;28;20030;-59
2021/05/01 01:25:59;;;;;;;33.42;27.40;;;;;;;7.41;61.10;99717.97;5013757;28;20045;-59
2021/05/01 01:28:34;;;;;;;35.05;27.08;;;;;;;7.40;60.83;99721.38;5012321;28;20033;-59
2021/05/01 01:31:05;;;;;;;34.50;26.30;;;;;;;7.39;60.73;99722.25;5012966;28;20140;-58
2021/05/01 01:33:38;;;;;;;37.20;28.30;;;;;;;7.37;60.66;99729.06;5014106;28;20084;-58
2021/05/01 01:36:10;;;;;;;34.58;28.10;;;;;;;7.35;61.10;99728.16;5013728;28;20072;-59
2021/05/01 01:38:39;;;;;;;34.92;26.38;;;;;;;7.33;61.03;99715.19;5012400;28;20100;-59
2021/05/01 01:41:13;;;;;;;36.38;27.80;;;;;;;7.34;60.60;99718.66;5013168;28;20508;-59
2021/05/01 01:43:42;;;;;;;41.00;29.80;;;;;;;7.32;60.90;99722.09;5012206;28;20037;-59
2021/05/01 01:46:16;;;;;;;39.28;27.42;;;;;;;7.31;60.50;99715.19;5012679;28;20038;-59
2021/05/01 01:51:59;;;;;;;34.78;27.98;;;;;;;7.28;60.95;99717.69;4972976;28;20057;-63
2021/05/01 01:54:28;;;;;;;37.03;27.63;;;;;;;7.26;60.67;99719.34;4974399;28;20042;-63
2021/05/01 01:56:59;;;;;;;38.38;29.63;;;;;;;7.24;60.77;99723.59;4974457;28;20035;-63
2021/05/01 01:59:24;;;;;;;36.85;28.45;;;;;;;7.22;61.05;99717.53;4957207;28;20035;-63
2021/05/01 02:01:50;;;;;;;34.10;27.58;;;;;;;7.21;60.87;99722.66;4956848;28;20056;-64
2021/05/01 02:04:18;;;;;;;37.08;29.67;;;;;;;7.18;61.31;99723.44;4973175;28;20086;-64
2021/05/01 02:06:46;;;;;;;36.47;27.52;;;;;;;7.18;61.24;99726.03;4974635;28;20039;-63
2021/05/01 02:09:17;;;;;;;38.05;28.15;;;;;;;7.18;61.33;99727.72;4973713;28;20043;-63
2021/05/01 02:11:43;;;;;;;39.00;28.00;;;;;;;7.17;60.81;99713.97;4957172;28;20038;-64
2021/05/01 02:14:13;;;;;;;32.60;26.55;;;;;;;7.15;60.85;99708.78;4957162;28;20039;-63
2021/05/01 02:16:39;;;;;;;32.70;26.27;;;;;;;7.16;61.16;99707.94;4974058;28;20039;-64
2021/05/01 02:19:10;;;;;;;38.65;29.05;;;;;;;7.16;61.17;99710.50;4974507;28;20043;-63
2021/05/01 02:21:35;;;;;;;37.20;29.00;;;;;;;7.13;60.79;99710.47;4957143;28;20035;-63
2021/05/01 02:24:04;;;;;;;37.38;28.13;;;;;;;7.13;61.02;99712.16;4974140;28;20069;-64
2021/05/01 02:26:32;;;;;;;36.03;28.00;;;;;;;7.11;61.01;99708.66;4975631;28;20070;-64
2021/05/01 02:29:00;;;;;;;35.75;27.58;;;;;;;7.12;60.86;99710.41;4977031;28;20074;-63
2021/05/01 02:31:30;;;;;;;36.08;27.27;;;;;;;7.10;61.41;99714.66;4977172;28;20062;-64
2021/05/01 02:34:02;;;;;;;41.05;30.77;;;;;;;7.10;61.38;99705.22;4960254;28;20126;-63
2021/05/01 02:36:30;;;;;;;39.40;29.48;;;;;;;7.09;61.27;99715.47;4978237;28;20129;-63
2021/05/01 02:38:57;;;;;;;41.63;29.73;;;;;;;7.09;61.27;99711.22;4977695;28;20047;-63
2021/05/01 02:41:25;;;;;;;35.10;26.75;;;;;;;7.08;61.23;99712.03;4977672;28;20553;-63
2021/05/01 02:43:56;;;;;;;41.55;28.85;;;;;;;7.07;61.16;99712.00;4977604;28;20050;-63
2021/05/01 02:46:22;;;;;;;36.85;28.90;;;;;;;7.05;60.98;99706.81;4977588;28;20046;-63
2021/05/01 02:48:55;;;;;;;42.17;30.08;;;;;;;7.06;61.47;99705.13;4960326;28;20042;-63
2021/05/01 02:51:27;;;;;;;39.50;28.85;;;;;;;7.03;61.25;99695.59;4959670;28;20051;-63
2021/05/01 02:53:57;;;;;;;42.15;29.45;;;;;;;7.01;61.10;99690.41;4977299;28;20082;-63
2021/05/01 02:56:26;;;;;;;39.50;29.70;;;;;;;7.00;61.16;99696.38;4960150;28;20494;-63
2021/05/01 02:58:57;;;;;;;38.97;29.38;;;;;;;6.99;60.85;99694.66;4977358;28;20034;-63
2021/05/01 03:01:27;;;;;;;40.70;31.50;;;;;;;6.98;61.62;99698.06;4977702;28;20122;-63
2021/05/01 03:03:55;;;;;;;39.80;29.67;;;;;;;6.96;61.43;99688.56;4977415;28;20047;-62
2021/05/01 03:06:29;;;;;;;38.80;28.80;;;;;;;6.95;61.36;99697.13;4977387;28;20065;-63
2021/05/01 03:08:54;;;;;;;40.50;30.02;;;;;;;6.94;61.02;99695.38;4976931;28;20114;-63
2021/05/01 03:11:22;;;;;;;38.97;30.00;;;;;;;6.91;61.36;99698.75;4977215;28;20131;-63
2021/05/01 03:13:51;;;;;;;38.10;29.83;;;;;;;6.88;61.25;99702.94;4975876;28;20031;-64
2021/05/01 03:16:16;;;;;;;39.22;29.40;;;;;;;6.88;60.95;99693.50;4975645;28;20038;-64
2021/05/01 03:18:46;;;;;;;40.17;28.42;;;;;;;6.87;61.57;99694.34;4976849;28;20061;-63
2021/05/01 03:21:20;;;;;;;38.58;28.95;;;;;;;6.84;61.01;99692.56;4959359;28;20089;-64
2021/05/01 03:23:47;;;;;;;37.95;29.17;;;;;;;6.82;60.74;99701.97;4976069;28;20090;-63
2021/05/01 03:26:17;;;;;;;34.40;27.58;;;;;;;6.79;61.04;99704.44;4976708;28;20063;-63
2021/05/01 03:28:43;;;;;;;39.53;29.48;;;;;;;6.79;61.23;99703.56;4976439;28;20073;-63
2021/05/01 03:31:14;;;;;;;35.88;27.60;;;;;;;6.75;61.15;99700.03;4976865;28;20047;-63
2021/05/01 03:33:43;;;;;;;37.65;28.33;;;;;;;6.76;60.99;99703.50;4976523;28;20031;-63
2021/05/01 03:36:09;;;;;;;42.90;30.30;;;;;;;6.75;61.29;99709.50;4958985;28;20057;-63
2021/05/01 03:38:34;;;;;;;37.10;28.52;;;;;;;6.74;61.22;99700.03;4974979;28;20478;-63
2021/05/01 03:41:11;;;;;;;40.25;27.25;;;;;;;6.72;61.53;99699.09;4975976;28;20249;-63
2021/05/01 03:43:39;;;;;;;39.13;29.83;;;;;;;6.71;61.41;99703.38;4975879;28;20039;-63
2021/05/01 03:46:07;;;;;;;35.95;28.65;;;;;;;6.70;61.76;99696.47;4960174;28;20479;-63
2021/05/01 03:48:41;;;;;;;43.30;30.13;;;;;;;6.70;61.27;99709.34;4976391;28;20126;-63
2021/05/01 03:51:12;;;;;;;38.72;28.13;;;;;;;6.69;61.09;99702.47;4975478;28;20546;-62
2021/05/01 03:53:41;;;;;;;38.10;28.48;;;;;;;6.67;61.61;99710.16;4976718;28;20034;-63
2021/05/01 03:56:06;;;;;;;38.85;29.15;;;;;;;6.67;61.78;99711.88;4976211;28;20395;-63
2021/05/01 03:58:36;;;;;;;39.80;29.27;;;;;;;6.65;61.47;99716.97;4974612;28;20062;-63
2021/05/01 04:01:05;;;;;;;37.28;29.58;;;;;;;6.64;61.48;99709.19;4975920;28;20062;-63
2021/05/01 04:03:30;;;;;;;36.88;29.70;;;;;;;6.63;61.33;99713.47;4976173;28;20039;-63
2021/05/01 04:06:05;;;;;;;37.75;30.17;;;;;;;6.61;61.31;99715.16;4975024;28;20376;-63
2021/05/01 04:08:38;;;;;;;43.38;30.67;;;;;;;6.61;61.30;99710.00;4976297;28;20038;-63
2021/05/01 04:11:06;;;;;;;41.00;31.63;;;;;;;6.60;61.58;99715.09;4975722;28;20043;-63
2021/05/01 04:14:10;;;;;;;40.75;30.15;;;;;;;6.60;61.61;99709.94;4975377;28;20458;-63
2021/05/01 04:16:29;;;;;;;42.75;31.00;;;;;;;6.59;61.91;99714.22;4972815;28;20042;-63
2021/05/01 04:19:00;;;;;;;42.58;30.70;;;;;;;6.58;61.41;99712.50;4958452;28;20034;-63
2021/05/01 04:21:28;;;;;;;38.22;29.88;;;;;;;6.59;62.08;99708.19;4975767;28;20122;-62
2021/05/01 04:23:57;;;;;;;44.25;31.25;;;;;;;6.59;61.80;99710.78;4974090;28;20050;-63
2021/05/01 04:26:30;;;;;;;41.67;32.33;;;;;;;6.57;61.69;99705.59;4958352;28;20041;-63
2021/05/01 04:29:01;;;;;;;43.63;32.63;;;;;;;6.57;61.50;99708.16;4958567;28;20077;-63
2021/05/01 04:31:32;;;;;;;43.20;31.65;;;;;;;6.57;61.51;99702.13;4974509;28;20840;-63
2021/05/01 04:34:01;;;;;;;41.22;31.25;;;;;;;6.54;61.91;99701.22;4974406;28;20038;-63
2021/05/01 04:36:34;;;;;;;42.03;30.80;;;;;;;6.56;61.31;99703.84;4975440;28;20042;-63
2021/05/01 04:39:02;;;;;;;44.80;32.28;;;;;;;6.55;61.64;99699.53;4975804;28;20129;-63
2021/05/01 04:41:34;;;;;;;42.90;31.35;;;;;;;6.54;61.41;99701.22;4975912;28;20039;-63
2021/05/01 04:44:08;;;;;;;40.13;30.33;;;;;;;6.54;61.36;99701.22;4974474;28;20043;-63
2021/05/01 04:46:37;;;;;;;;;;;;;;;6.51;61.32;99705.41;4975778;28;20086;-63
2021/05/01 04:49:13;;;;;;;45.45;30.13;;;;;;;6.52;61.34;99709.72;4975070;28;19921;-63
2021/05/01 04:51:41;;;;;;;42.47;32.67;;;;;;;6.52;61.68;99708.06;4974648;28;20042;-63
2021/05/01 04:54:09;;;;;;;47.50;34.05;;;;;;;6.52;61.84;99720.03;4975297;28;20047;-63
2021/05/01 04:56:41;;;;;;;48.28;34.25;;;;;;;6.52;61.44;99727.75;4974079;28;20039;-63
2021/05/01 04:59:06;;;;;;;46.53;33.38;;;;;;;6.51;61.89;99729.47;4975464;28;20126;-63
2021/05/01 05:01:37;;;;;;;43.85;33.28;;;;;;;6.52;61.40;99733.81;4974931;28;20069;-63
2021/05/01 05:04:06;;;;;;;46.75;34.22;;;;;;;6.51;61.56;99729.47;4974194;28;20042;-63
2021/05/01 05:06:34;;;;;;;43.67;34.42;;;;;;;6.52;61.59;99731.22;4975397;28;20041;-63
2021/05/01 05:09:05;;;;;;;43.42;32.30;;;;;;;6.51;61.97;99726.91;4975328;28;20047;-63
2021/05/01 05:11:32;;;;;;;42.42;32.33;;;;;;;6.52;61.91;99732.91;4975073;28;20034;-63
2021/05/01 05:14:03;;;;;;;46.80;33.10;;;;;;;6.52;61.69;99741.53;4975093;28;20118;-63
2021/05/01 05:16:31;;;;;;;43.85;32.80;;;;;;;6.52;62.09;99738.06;4974872;28;20050;-62
2021/05/01 05:19:00;;;;;;;41.72;31.77;;;;;;;6.51;61.48;99737.19;4974514;28;20066;-63
2021/05/01 05:21:30;;;;;;;42.15;33.13;;;;;;;6.52;61.94;99743.22;4975150;28;20045;-63
2021/05/01 05:24:03;;;;;;;45.13;32.50;;;;;;;6.50;61.93;99732.00;4973467;28;20458;-63
2021/05/01 05:26:35;;;;;;;47.13;33.33;;;;;;;6.52;62.01;99738.06;4973596;28;20031;-63
2021/05/01 05:29:03;;;;;;;44.55;32.92;;;;;;;6.52;62.04;99741.53;4974051;28;20039;-63
2021/05/01 05:31:34;;;;;;;45.55;33.17;;;;;;;6.50;61.59;99734.56;4974415;28;20141;-63
2021/05/01 05:34:00;;;;;;;44.97;33.33;;;;;;;6.51;61.84;99738.88;4957833;28;20038;-63
2021/05/01 05:36:33;;;;;;;46.47;33.28;;;;;;;6.50;61.79;99730.31;4973570;28;20042;-63
2021/05/01 05:39:03;;;;;;;46.90;34.78;;;;;;;6.52;62.18;99732.91;4974544;28;20122;-63
2021/05/01 05:41:34;;;;;;;40.75;31.48;;;;;;;6.52;61.45;99740.63;4957287;28;20569;-63
2021/05/01 05:44:06;;;;;;;48.80;32.65;;;;;;;6.52;61.89;99746.66;4974208;28;20035;-63
2021/05/01 05:46:32;;;;;;;53.58;35.35;;;;;;;6.53;61.86;99744.97;4957701;28;20041;-63
2021/05/01 05:49:05;;;;;;;47.97;35.63;;;;;;;6.53;62.23;99745.84;4957308;28;20503;-64
2021/05/01 05:51:37;;;;;;;45.65;33.08;;;;;;;6.54;62.16;99742.41;4974749;28;20059;-63
2021/05/01 05:54:03;;;;;;;46.60;34.33;;;;;;;6.57;61.96;99745.91;4956785;28;20486;-63
2021/05/01 05:56:35;;;;;;;47.55;34.13;;;;;;;6.55;62.05;99739.00;4973262;28;20038;-64
2021/05/01 05:59:04;;;;;;;46.28;33.45;;;;;;;6.58;62.05;99738.25;4974704;28;20030;-63
2021/05/01 06:01:32;;;;;;;49.58;35.33;;;;;;;6.59;61.81;99732.25;4977383;28;20467;-63
2021/05/01 06:03:59;;;;;;;45.88;34.58;;;;;;;6.61;61.86;99738.34;4977245;28;20043;-63
2021/05/01 06:06:33;;;;;;;50.05;35.65;;;;;;;6.62;62.24;99728.88;4976713;28;20034;-63
2021/05/01 06:08:58;;;;;;;53.13;34.30;;;;;;;6.65;61.81;99734.13;4977435;28;20050;-62
2021/05/01 06:11:25;;;;;;;47.88;34.85;;;;;;;6.65;62.61;99728.97;4978572;28;20394;-63
2021/05/01 06:13:51;;;;;;;46.83;34.25;;;;;;;6.65;62.25;99732.41;4976978;28;20117;-63
2021/05/01 06:16:20;;;;;;;41.80;32.42;;;;;;;6.67;61.91;99724.75;4976985;28;20054;-63
2021/05/01 06:18:47;;;;;;;47.70;35.05;;;;;;;6.67;62.50;99728.19;4978196;28;20035;-62
2021/05/01 06:21:15;;;;;;;48.03;33.22;;;;;;;6.67;62.22;99723.03;4976399;28;20043;-63
2021/05/01 06:23:43;;;;;;;48.38;33.17;;;;;;;6.69;62.33;99726.50;4960706;28;20518;-62
2021/05/01 06:26:09;;;;;;;44.50;32.00;;;;;;;6.70;62.22;99732.53;4977932;28;20039;-63
2021/05/01 06:28:35;;;;;;;41.45;32.78;;;;;;;6.74;62.55;99730.94;4976679;28;20046;-63
2021/05/01 06:31:05;;;;;;;43.08;31.60;;;;;;;6.74;62.26;99726.63;4960422;28;20562;-63
2021/05/01 06:33:31;;;;;;;42.13;31.33;;;;;;;6.75;62.59;99727.53;4977644;28;20041;-63
2021/05/01 06:36:01;;;;;;;40.08;30.35;;;;;;;6.76;62.59;99724.97;4977571;28;20591;-62
2021/05/01 06:38:28;;;;;;;42.30;32.25;;;;;;;6.79;62.36;99732.78;4977791;28;20490;-62
2021/05/01 06:40:58;;;;;;;45.33;32.00;;;;;;;6.79;62.54;99740.50;4977768;28;20043;-62
2021/05/01 06:44:11;;;;;;;41.15;29.52;;;;;;;6.82;61.95;99731.97;4976534;28;20046;-63
2021/05/01 06:46:40;;;;;;;43.67;30.10;;;;;;;6.83;62.56;99734.63;4976438;28;20042;-63
2021/05/01 06:49:11;;;;;;;38.58;26.77;;;;;;;6.84;62.57;99740.63;4977233;28;20069;-63
2021/05/01 06:51:38;;;;;;;34.35;25.73;;;;;;;6.86;62.77;99742.41;4976177;28;20130;-63
2021/05/01 06:54:07;;;;;;;36.60;26.40;;;;;;;6.88;62.58;99745.03;4976126;28;20438;-63
2021/05/01 06:56:33;;;;;;;39.10;27.60;;;;;;;6.89;62.33;99751.03;4977216;28;20121;-63
2021/05/01 06:59:03;;;;;;;40.42;27.23;;;;;;;6.89;62.55;99748.47;4977038;28;20527;-63
2021/05/01 07:01:28;;;;;;;37.15;25.95;;;;;;;6.90;62.53;99745.94;4976138;28;20042;-63
2021/05/01 07:03:54;;;;;;;39.97;25.10;;;;;;;6.92;62.32;99743.41;4977196;28;20402;-63
2021/05/01 07:06:21;;;;;;;35.30;23.55;;;;;;;6.93;62.69;99742.56;4976126;28;20035;-63
2021/05/01 07:08:46;;;;;;;33.47;23.00;;;;;;;6.93;62.95;99740.84;4976101;28;20042;-63
2021/05/01 07:11:13;;;;;;;34.78;23.92;;;;;;;6.95;62.59;99744.34;4975895;28;20034;-63
2021/05/01 07:13:40;;;;;;;35.38;24.30;;;;;;;6.98;62.78;99730.69;4975707;28;20035;-63
2021/05/01 07:16:10;;;;;;;32.22;23.60;;;;;;;6.98;62.61;99728.97;4975807;28;20030;-62
2021/05/01 07:18:40;;;;;;;38.47;23.80;;;;;;;7.00;62.24;99729.88;4975586;28;20406;-63
2021/05/01 07:21:09;;;;;;;34.28;26.00;;;;;;;7.01;62.75;99734.22;4976982;28;20042;-63
2021/05/01 07:23:35;;;;;;;37.70;25.55;;;;;;;7.03;62.61;99733.38;4976466;28;20070;-63
2021/05/01 07:26:02;;;;;;;41.22;24.52;;;;;;;7.04;62.80;99732.56;4976651;28;20038;-63
2021/05/01 07:28:34;;;;;;;39.00;27.80;;;;;;;7.05;62.53;99731.72;4976917;28;20094;-63
2021/05/01 07:31:05;;;;;;;37.15;27.13;;;;;;;7.07;63.26;99732.63;4975902;28;20406;-63
2021/05/01 07:33:32;;;;;;;39.08;27.15;;;;;;;7.09;62.79;99730.94;4977153;28;20093;-63
2021/05/01 07:36:11;;;;;;;35.72;26.63;;;;;;;7.10;62.82;99728.41;4959371;28;20069;-63
2021/05/01 07:38:38;;;;;;;38.83;27.48;;;;;;;7.10;63.11;99723.25;4976155;28;20118;-63
2021/05/01 07:41:03;;;;;;;46.70;30.33;;;;;;;7.12;62.87;99731.91;4975510;28;20062;-63
2021/05/01 07:43:30;;;;;;;37.20;27.15;;;;;;;7.14;63.05;99725.09;4959276;28;20487;-63
2021/05/01 07:45:58;;;;;;;37.97;25.77;;;;;;;7.16;63.04;99720.81;4976206;28;20114;-63
2021/05/01 07:48:27;;;;;;;35.42;24.02;;;;;;;7.16;63.01;99727.69;4959519;28;20039;-63
2021/05/01 07:50:56;;;;;;;40.63;26.83;;;;;;;7.19;62.90;99724.31;4975085;28;20046;-63
2021/05/01 07:53:28;;;;;;;34.25;25.15;;;;;;;7.20;62.61;99729.53;4959386;28;20150;-63
2021/05/01 07:56:01;;;;;;;32.78;25.02;;;;;;;7.21;62.52;99730.38;4976503;28;20037;-63
2021/05/01 07:58:27;;;;;;;35.65;24.80;;;;;;;7.23;62.88;99727.03;4959086;28;20037;-63
2021/05/01 08:00:53;;;;;;;34.75;25.13;;;;;;;7.24;63.14;99733.03;4958590;28;20038;-64
2021/05/01 08:03:21;;;;;;;36.03;26.15;;;;;;;7.25;62.85;99729.63;4976083;28;20486;-63
2021/05/01 08:05:49;;;;;;;34.20;25.00;;;;;;;7.26;62.77;99733.94;4958704;28;20046;-63
2021/05/01 08:08:20;;;;;;;35.88;24.42;;;;;;;7.28;62.85;99732.28;4974688;28;20034;-63
2021/05/01 08:10:46;;;;;;;40.78;25.15;;;;;;;7.29;62.66;99731.47;4975202;28;20047;-63
2021/05/01 08:13:14;;;;;;;32.50;24.02;;;;;;;7.30;62.50;99728.03;4974875;28;20208;-63
2021/05/01 08:15:43;;;;;;;36.05;24.42;;;;;;;7.31;62.77;99730.66;4975692;28;20046;-63
2021/05/01 08:18:08;;;;;;;39.95;24.15;;;;;;;7.31;62.52;99733.22;4974718;28;20086;-63
2021/05/01 08:20:38;;;;;;;35.92;24.30;;;;;;;7.32;62.76;99736.66;4975991;28;20042;-62
2021/05/01 08:23:05;;;;;;;34.25;23.42;;;;;;;7.32;62.92;99742.72;4958790;28;20062;-63
2021/05/01 08:25:31;;;;;;;32.45;22.42;;;;;;;7.33;63.00;99738.41;4958070;28;20391;-63
2021/05/01 08:27:59;;;;;;;30.80;23.23;;;;;;;7.35;62.48;99741.91;4976098;28;20050;-63
2021/05/01 08:30:27;;;;;;;32.00;22.77;;;;;;;7.36;62.86;99735.06;4975537;28;20034;-63
2021/05/01 08:32:56;;;;;;;34.38;21.85;;;;;;;7.36;63.58;99738.50;4958212;28;20046;-63
2021/05/01 08:35:24;;;;;;;29.10;21.85;;;;;;;7.41;63.26;99736.91;4975337;28;20134;-63
2021/05/01 08:37:52;;;;;;;29.63;23.48;;;;;;;7.44;62.93;99744.72;4958307;28;20121;-63
2021/05/01 08:40:20;;;;;;;30.52;22.55;;;;;;;7.45;63.00;99741.31;4975816;28;20046;-63
2021/05/01 08:42:47;;;;;;;29.23;22.67;;;;;;;7.47;63.18;99749.06;4975406;28;20035;-63
2021/05/01 08:45:23;;;;;;;31.02;21.25;;;;;;;7.50;62.92;99748.25;4974416;28;20039;-63
2021/05/01 08:47:51;;;;;;;27.05;20.58;;;;;;;7.54;62.76;99734.59;4975714;28;20058;-63
2021/05/01 08:50:25;;;;;;;29.95;22.55;;;;;;;7.54;62.89;99732.03;4975469;28;20058;-63
2021/05/01 08:52:57;;;;;;;25.65;20.45;;;;;;;7.55;63.06;99737.22;4957851;28;20077;-64
2021/05/01 08:55:34;;;;;;;29.45;20.30;;;;;;;7.56;62.98;99732.94;4957733;28;20526;-63
2021/05/01 08:58:00;;;;;;;23.75;17.52;;;;;;;7.56;62.96;99736.38;4974077;28;20471;-63
2021/05/01 09:00:26;;;;;;;25.50;19.02;;;;;;;7.59;62.77;99743.34;4975155;28;20556;-63
2021/05/01 09:02:53;;;;;;;23.48;18.05;;;;;;;7.61;62.68;99746.81;4974109;28;20035;-63
2021/05/01 09:05:18;;;;;;;23.52;18.08;;;;;;;7.62;62.58;99743.41;4974737;28;20067;-63
2021/05/01 09:07:46;;;;;;;29.48;18.02;;;;;;;7.63;62.96;99750.28;4973681;28;20078;-63
2021/05/01 09:10:14;;;;;;;23.55;18.17;;;;;;;7.64;62.91;99754.59;4975136;28;20046;-63
2021/05/01 09:12:47;;;;;;;22.60;17.30;;;;;;;7.66;62.45;99760.69;4975210;28;20043;-62
2021/05/01 09:15:24;;;;;;;21.88;16.30;;;;;;;7.71;62.80;99758.19;4974016;28;20129;-63
2021/05/01 09:18:01;;;;;;;20.33;16.65;;;;;;;7.74;62.70;99766.00;4974711;28;20078;-63
2021/05/01 09:20:27;;;;;;;22.15;15.73;;;;;;;7.74;62.50;99756.59;4975006;28;20506;-63
2021/05/01 09:23:03;;;;;;;22.85;16.50;;;;;;;7.77;62.84;99758.34;4974861;28;20073;-63
2021/05/01 09:25:31;;;;;;;20.58;15.23;;;;;;;7.76;62.55;99765.22;4974616;28;20039;-63
2021/05/01 09:28:18;;;;;;;19.60;14.70;;;;;;;7.78;62.82;99765.25;4974022;28;20050;-63
2021/05/01 09:30:59;;;;;;;20.23;15.25;;;;;;;7.82;62.60;99767.06;4974826;28;20062;-63
2021/05/01 09:33:35;;;;;;;18.85;14.13;;;;;;;7.84;62.55;99754.19;4974830;28;20049;-63
2021/05/01 09:36:04;;;;;;;21.33;12.93;;;;;;;7.86;62.46;99753.38;4974650;28;20045;-63
2021/05/01 09:38:36;;;;;;;19.80;14.10;;;;;;;7.87;62.44;99754.28;4974638;28;20034;-63
2021/05/01 09:41:23;;;;;;;18.98;14.15;;;;;;;7.90;62.69;99760.38;4974332;28;20066;-63
2021/05/01 09:44:08;;;;;;;18.75;12.38;;;;;;;7.91;62.49;99751.78;4974571;28;20035;-63
2021/05/01 09:46:42;;;;;;;15.07;10.90;;;;;;;7.93;62.65;99755.28;4974981;28;20046;-63
2021/05/01 09:49:18;;;;;;;16.92;12.80;;;;;;;7.97;62.58;99755.34;4973491;28;20035;-63
2021/05/01 09:51:45;;;;;;;13.02;10.77;;;;;;;7.99;62.36;99748.53;4957300;28;20170;-63
2021/05/01 09:54:12;;;;;;;16.73;11.85;;;;;;;8.01;62.60;99746.84;4973243;28;20046;-64
2021/05/01 09:56:40;;;;;;;13.15;10.07;;;;;;;8.03;62.42;99739.97;4973983;28;20375;-62
2021/05/01 09:59:10;;;;;;;12.90;9.32;;;;;;;8.05;62.55;99746.06;4973081;28;20039;-63
2021/05/01 10:01:37;;;;;;;10.95;8.85;;;;;;;8.07;62.54;99741.78;4973459;28;20031;-63
2021/05/01 10:04:31;;;;;;;12.05;9.35;;;;;;;8.11;62.51;99753.06;4974505;28;20031;-63
2021/05/01 10:07:04;;;;;;;14.77;9.77;;;;;;;8.12;62.33;99755.69;4969785;28;20133;-62
2021/05/01 10:09:35;;;;;;;11.07;9.18;;;;;;;8.12;62.33;99745.34;4974539;28;20038;-63
2021/05/01 10:12:32;;;;;;;11.18;9.15;;;;;;;8.11;62.11;99758.22;4974552;28;20039;-63
2021/05/01 10:14:59;;;;;;;8.85;7.45;;;;;;;8.11;62.03;99750.47;4957025;28;20098;-64
2021/05/01 10:17:28;;;;;;;11.35;7.28;;;;;;;8.12;61.96;99744.47;4973041;28;20143;-63
2021/05/01 10:19:53;;;;;;;13.40;9.50;;;;;;;8.12;62.32;99739.31;4973160;28;20126;-63
2021/05/01 10:22:32;;;;;;;10.77;8.25;;;;;;;8.09;62.29;99742.72;4974264;28;20130;-63
2021/05/01 10:25:01;;;;;;;11.75;8.63;;;;;;;8.09;61.93;99740.13;4974199;28;20043;-63
2021/05/01 10:27:28;;;;;;;11.63;8.30;;;;;;;8.11;62.15;99737.56;4972860;28;20061;-63
2021/05/01 10:30:04;;;;;;;12.20;8.52;;;;;;;8.14;62.13;99746.25;4956953;28;20041;-64
2021/05/01 10:32:32;;;;;;;10.45;7.63;;;;;;;8.17;62.25;99743.75;4973077;28;20049;-64
2021/05/01 10:35:02;;;;;;;9.73;7.65;;;;;;;8.20;62.08;99742.94;4973041;28;20045;-63
2021/05/01 10:37:30;;;;;;;12.88;8.38;;;;;;;8.21;62.08;99742.09;4974412;28;20039;-63
2021/05/01 10:39:57;;;;;;;11.77;8.45;;;;;;;8.23;62.12;99732.69;4972948;28;20035;-63
2021/05/01 10:42:26;;;;;;;11.48;7.85;;;;;;;8.25;62.07;99732.69;4973596;28;20126;-63
2021/05/01 10:44:59;;;;;;;10.05;7.50;;;;;;;8.29;61.81;99739.69;4974118;28;20130;-63
2021/05/01 10:47:28;;;;;;;10.80;7.60;;;;;;;8.32;61.85;99735.44;4975511;28;20039;-63
2021/05/01 10:49:57;;;;;;;9.93;8.40;;;;;;;8.34;61.68;99738.94;4977586;28;20082;-64
2021/05/01 10:52:23;;;;;;;10.23;7.55;;;;;;;8.34;61.86;99732.88;4977721;28;20063;-63
2021/05/01 10:55:00;;;;;;;10.15;7.18;;;;;;;8.34;61.97;99727.72;4977015;28;20066;-63
2021/05/01 10:57:25;;;;;;;9.10;7.95;;;;;;;8.34;61.72;99728.59;4976605;28;20043;-63
2021/05/01 10:59:58;;;;;;;8.38;7.15;;;;;;;8.36;61.71;99738.94;4976107;28;20037;-63
2021/05/01 11:02:35;;;;;;;10.20;8.00;;;;;;;8.37;61.77;99732.94;4976120;28;20420;-62
2021/05/01 11:05:06;;;;;;;9.80;8.73;;;;;;;8.39;61.57;99733.84;4976315;28;20129;-63
2021/05/01 11:07:41;;;;;;;12.23;7.90;;;;;;;8.40;61.57;99729.56;4976095;28;20035;-63
2021/05/01 11:10:09;;;;;;;11.13;8.43;;;;;;;8.38;61.50;99716.59;4975811;28;20554;-63
2021/05/01 11:12:37;;;;;;;10.43;9.13;;;;;;;8.38;61.49;99729.53;4975865;28;20435;-63
2021/05/01 11:15:09;;;;;;;12.48;9.40;;;;;;;8.38;61.42;99722.66;4976742;28;20042;-64
2021/05/01 11:17:37;;;;;;;9.95;8.50;;;;;;;8.40;61.52;99724.41;4975731;28;20042;-63
2021/05/01 11:20:09;;;;;;;13.43;9.48;;;;;;;8.38;61.22;99722.66;4975634;28;20117;-63
2021/05/01 11:22:38;;;;;;;10.32;8.43;;;;;;;8.39;61.33;99718.34;4975901;28;20098;-63
2021/05/01 11:25:12;;;;;;;11.35;8.82;;;;;;;8.40;61.63;99716.66;4976787;28;20130;-63
2021/05/01 11:27:40;;;;;;;11.95;8.82;;;;;;;8.41;61.27;99705.50;4975616;28;20042;-63
2021/05/01 11:30:09;;;;;;;13.63;10.05;;;;;;;8.42;61.58;99709.78;4975833;28;20030;-63
2021/05/01 11:32:36;;;;;;;12.68;9.15;;;;;;;8.43;61.49;99712.41;4976792;28;20085;-63
2021/05/01 11:35:05;;;;;;;10.77;9.70;;;;;;;8.46;61.39;99709.00;4975950;28;20043;-63
2021/05/01 11:37:39;;;;;;;12.18;9.85;;;;;;;8.48;61.18;99709.94;4975374;28;20479;-63
2021/05/01 11:40:14;;;;;;;14.55;10.85;;;;;;;8.48;61.34;99716.00;4976001;28;20041;-63
2021/05/01 11:42:45;;;;;;;13.32;10.30;;;;;;;8.51;61.13;99713.44;4976754;28;20439;-63
2021/05/01 11:45:45;;;;;;;13.85;10.27;;;;;;;8.51;61.30;99710.88;4975371;28;20035;-64
2021/05/01 11:48:17;;;;;;;13.40;9.98;;;;;;;8.53;61.13;99710.91;4961993;28;20055;-63